sensor_id;sensor_type;location;lat;lon;timestamp;P1;durP1;ratioP1;P2;durP2;ratioP2
18917;SDS011;9591;52.742;13.650;2022-11-06T00:01:34;19.40;;;7.90;;
18917;SDS011;9591;52.742;13.650;2022-11-06T00:04:20;16.43;;;7.33;;
18917;SDS011;9591;52.742;13.650;2022-11-06T00:07:07;15.53;;;7.37;;
18917;SDS011;9591;52.742;13.650;2022-11-06T00:09:53;13.50;;;7.27;;
18917;SDS011;9591;52.742;13.650;2022-11-06T00:12:40;13.20;;;6.90;;
18917;SDS011;9591;52.742;13.650;2022-11-06T00:15:28;19.00;;;7.23;;
18917;SDS011;9591;52.742;13.650;2022-11-06T00:18:15;17.17;;;6.77;;
18917;SDS011;9591;52.742;13.650;2022-11-06T00:21:05;15.70;;;7.10;;
18917;SDS011;9591;52.742;13.650;2022-11-06T00:23:52;17.93;;;6.20;;
18917;SDS011;9591;52.742;13.650;2022-11-06T00:26:41;14.87;;;6.57;;
18917;SDS011;9591;52.742;13.650;2022-11-06T00:29:28;15.37;;;6.40;;
18917;SDS011;9591;52.742;13.650;2022-11-06T00:32:16;16.53;;;6.53;;
18917;SDS011;9591;52.742;13.650;2022-11-06T00:35:03;13.60;;;6.90;;
18917;SDS011;9591;52.742;13.650;2022-11-06T00:37:50;9.40;;;6.40;;
18917;SDS011;9591;52.742;13.650;2022-11-06T00:40:37;11.50;;;6.23;;
18917;SDS011;9591;52.742;13.650;2022-11-06T00:43:24;13.23;;;6.40;;
18917;SDS011;9591;52.742;13.650;2022-11-06T00:46:11;9.60;;;5.47;;
18917;SDS011;9591;52.742;13.650;2022-11-06T00:49:00;11.60;;;6.10;;
18917;SDS011;9591;52.742;13.650;2022-11-06T00:51:46;13.13;;;5.83;;
18917;SDS011;9591;52.742;13.650;2022-11-06T00:54:33;13.30;;;6.20;;
18917;SDS011;9591;52.742;13.650;2022-11-06T00:57:20;10.43;;;5.57;;
18917;SDS011;9591;52.742;13.650;2022-11-06T01:00:07;9.97;;;5.47;;
18917;SDS011;9591;52.742;13.650;2022-11-06T01:02:55;19.03;;;5.90;;
18917;SDS011;9591;52.742;13.650;2022-11-06T01:05:43;12.77;;;5.40;;
18917;SDS011;9591;52.742;13.650;2022-11-06T01:08:30;10.40;;;5.77;;
18917;SDS011;9591;52.742;13.650;2022-11-06T01:11:18;14.97;;;5.73;;
18917;SDS011;9591;52.742;13.650;2022-11-06T01:14:06;10.47;;;5.40;;
18917;SDS011;9591;52.742;13.650;2022-11-06T01:16:54;11.80;;;6.00;;
18917;SDS011;9591;52.742;13.650;2022-11-06T01:19:41;9.73;;;5.60;;
18917;SDS011;9591;52.742;13.650;2022-11-06T01:22:29;12.97;;;5.50;;
18917;SDS011;9591;52.742;13.650;2022-11-06T01:25:16;6.73;;;5.20;;
18917;SDS011;9591;52.742;13.650;2022-11-06T01:28:03;10.53;;;5.17;;
18917;SDS011;9591;52.742;13.650;2022-11-06T01:30:49;12.20;;;6.10;;
18917;SDS011;9591;52.742;13.650;2022-11-06T01:33:36;11.23;;;5.20;;
18917;SDS011;9591;52.742;13.650;2022-11-06T01:36:24;13.07;;;5.97;;
18917;SDS011;9591;52.742;13.650;2022-11-06T01:39:13;12.87;;;6.07;;
18917;SDS011;9591;52.742;13.650;2022-11-06T01:42:00;13.63;;;5.13;;
18917;SDS011;9591;52.742;13.650;2022-11-06T01:48:18;13.47;;;5.80;;
18917;SDS011;9591;52.742;13.650;2022-11-06T01:51:08;15.13;;;5.60;;
18917;SDS011;9591;52.742;13.650;2022-11-06T01:53:55;14.67;;;5.50;;
18917;SDS011;9591;52.742;13.650;2022-11-06T01:56:44;13.07;;;5.87;;
18917;SDS011;9591;52.742;13.650;2022-11-06T01:59:35;13.83;;;5.43;;
18917;SDS011;9591;52.742;13.650;2022-11-06T02:02:25;14.40;;;6.30;;
18917;SDS011;9591;52.742;13.650;2022-11-06T02:05:12;12.47;;;5.40;;
18917;SDS011;9591;52.742;13.650;2022-11-06T02:07:58;11.53;;;5.93;;
18917;SDS011;9591;52.742;13.650;2022-11-06T02:10:46;15.27;;;5.37;;
18917;SDS011;9591;52.742;13.650;2022-11-06T02:13:40;10.50;;;5.60;;
18917;SDS011;9591;52.742;13.650;2022-11-06T02:16:35;10.37;;;5.33;;
18917;SDS011;9591;52.742;13.650;2022-11-06T02:19:43;11.17;;;5.83;;
18917;SDS011;9591;52.742;13.650;2022-11-06T02:22:43;9.80;;;5.40;;
18917;SDS011;9591;52.742;13.650;2022-11-06T02:25:45;10.83;;;5.53;;
18917;SDS011;9591;52.742;13.650;2022-11-06T02:28:37;14.40;;;6.37;;
18917;SDS011;9591;52.742;13.650;2022-11-06T02:31:27;17.00;;;5.73;;
18917;SDS011;9591;52.742;13.650;2022-11-06T02:34:17;10.90;;;5.33;;
18917;SDS011;9591;52.742;13.650;2022-11-06T02:37:08;14.87;;;5.67;;
18917;SDS011;9591;52.742;13.650;2022-11-06T02:40:01;14.17;;;6.00;;
18917;SDS011;9591;52.742;13.650;2022-11-06T02:42:52;10.53;;;5.07;;
18917;SDS011;9591;52.742;13.650;2022-11-06T02:45:44;15.63;;;6.30;;
18917;SDS011;9591;52.742;13.650;2022-11-06T02:48:36;14.30;;;6.13;;
18917;SDS011;9591;52.742;13.650;2022-11-06T02:51:28;12.43;;;5.97;;
18917;SDS011;9591;52.742;13.650;2022-11-06T02:54:17;12.03;;;6.17;;
18917;SDS011;9591;52.742;13.650;2022-11-06T02:57:07;13.83;;;5.60;;
18917;SDS011;9591;52.742;13.650;2022-11-06T03:00:00;10.07;;;5.63;;
18917;SDS011;9591;52.742;13.650;2022-11-06T03:02:53;11.70;;;5.43;;
18917;SDS011;9591;52.742;13.650;2022-11-06T03:05:46;14.77;;;6.10;;
18917;SDS011;9591;52.742;13.650;2022-11-06T03:08:39;13.77;;;5.77;;
18917;SDS011;9591;52.742;13.650;2022-11-06T03:11:29;14.20;;;5.23;;
18917;SDS011;9591;52.742;13.650;2022-11-06T03:14:20;8.87;;;5.37;;
18917;SDS011;9591;52.742;13.650;2022-11-06T03:17:13;12.57;;;5.50;;
18917;SDS011;9591;52.742;13.650;2022-11-06T03:20:11;13.07;;;6.23;;
18917;SDS011;9591;52.742;13.650;2022-11-06T03:23:05;13.10;;;5.70;;
18917;SDS011;9591;52.742;13.650;2022-11-06T03:25:58;18.43;;;5.87;;
18917;SDS011;9591;52.742;13.650;2022-11-06T03:28:53;10.47;;;5.70;;
18917;SDS011;9591;52.742;13.650;2022-11-06T03:31:45;18.17;;;6.43;;
18917;SDS011;9591;52.742;13.650;2022-11-06T03:34:36;16.50;;;6.33;;
18917;SDS011;9591;52.742;13.650;2022-11-06T03:37:28;13.73;;;6.10;;
18917;SDS011;9591;52.742;13.650;2022-11-06T03:40:19;16.23;;;6.27;;
18917;SDS011;9591;52.742;13.650;2022-11-06T03:43:09;13.33;;;6.53;;
18917;SDS011;9591;52.742;13.650;2022-11-06T03:46:00;13.30;;;5.87;;
18917;SDS011;9591;52.742;13.650;2022-11-06T03:48:49;12.67;;;5.37;;
18917;SDS011;9591;52.742;13.650;2022-11-06T03:51:41;13.77;;;6.40;;
18917;SDS011;9591;52.742;13.650;2022-11-06T03:54:34;14.60;;;5.03;;
18917;SDS011;9591;52.742;13.650;2022-11-06T03:57:26;10.60;;;5.97;;
18917;SDS011;9591;52.742;13.650;2022-11-06T04:00:19;10.77;;;5.77;;
18917;SDS011;9591;52.742;13.650;2022-11-06T04:03:06;15.67;;;6.03;;
18917;SDS011;9591;52.742;13.650;2022-11-06T04:06:00;13.60;;;5.67;;
18917;SDS011;9591;52.742;13.650;2022-11-06T04:08:50;13.37;;;5.77;;
18917;SDS011;9591;52.742;13.650;2022-11-06T04:11:58;12.97;;;5.90;;
18917;SDS011;9591;52.742;13.650;2022-11-06T04:15:20;13.37;;;6.20;;
18917;SDS011;9591;52.742;13.650;2022-11-06T04:18:11;13.47;;;6.30;;
18917;SDS011;9591;52.742;13.650;2022-11-06T04:21:02;12.70;;;5.80;;
18917;SDS011;9591;52.742;13.650;2022-11-06T04:24:14;13.90;;;6.10;;
18917;SDS011;9591;52.742;13.650;2022-11-06T04:27:29;13.73;;;6.63;;
18917;SDS011;9591;52.742;13.650;2022-11-06T04:30:23;16.00;;;5.77;;
18917;SDS011;9591;52.742;13.650;2022-11-06T04:33:11;11.47;;;6.07;;
18917;SDS011;9591;52.742;13.650;2022-11-06T04:36:05;10.73;;;5.60;;
18917;SDS011;9591;52.742;13.650;2022-11-06T04:39:00;14.70;;;6.10;;
18917;SDS011;9591;52.742;13.650;2022-11-06T04:41:53;13.13;;;5.97;;
18917;SDS011;9591;52.742;13.650;2022-11-06T04:44:48;16.67;;;6.50;;
18917;SDS011;9591;52.742;13.650;2022-11-06T04:47:37;12.10;;;6.03;;
18917;SDS011;9591;52.742;13.650;2022-11-06T04:50:25;10.87;;;5.53;;
18917;SDS011;9591;52.742;13.650;2022-11-06T04:53:14;9.37;;;5.93;;
18917;SDS011;9591;52.742;13.650;2022-11-06T04:56:05;10.73;;;5.43;;
18917;SDS011;9591;52.742;13.650;2022-11-06T04:58:55;17.30;;;5.53;;
18917;SDS011;9591;52.742;13.650;2022-11-06T05:01:43;13.10;;;6.43;;
18917;SDS011;9591;52.742;13.650;2022-11-06T05:04:31;18.63;;;6.10;;
18917;SDS011;9591;52.742;13.650;2022-11-06T05:07:17;11.53;;;6.27;;
18917;SDS011;9591;52.742;13.650;2022-11-06T05:10:04;17.93;;;6.80;;
18917;SDS011;9591;52.742;13.650;2022-11-06T05:12:51;18.67;;;6.80;;
18917;SDS011;9591;52.742;13.650;2022-11-06T05:15:38;15.63;;;5.80;;
18917;SDS011;9591;52.742;13.650;2022-11-06T05:18:26;13.70;;;6.07;;
18917;SDS011;9591;52.742;13.650;2022-11-06T05:21:13;13.40;;;6.73;;
18917;SDS011;9591;52.742;13.650;2022-11-06T05:24:18;10.17;;;6.03;;
18917;SDS011;9591;52.742;13.650;2022-11-06T05:27:05;13.70;;;6.37;;
18917;SDS011;9591;52.742;13.650;2022-11-06T05:29:52;12.33;;;6.37;;
18917;SDS011;9591;52.742;13.650;2022-11-06T05:32:38;16.53;;;6.63;;
18917;SDS011;9591;52.742;13.650;2022-11-06T05:35:27;12.93;;;6.43;;
18917;SDS011;9591;52.742;13.650;2022-11-06T05:38:13;14.27;;;6.77;;
18917;SDS011;9591;52.742;13.650;2022-11-06T05:41:00;13.40;;;6.17;;
18917;SDS011;9591;52.742;13.650;2022-11-06T05:43:47;15.33;;;6.63;;
18917;SDS011;9591;52.742;13.650;2022-11-06T05:46:34;13.97;;;6.17;;
18917;SDS011;9591;52.742;13.650;2022-11-06T05:49:35;13.27;;;5.80;;
18917;SDS011;9591;52.742;13.650;2022-11-06T05:52:24;15.57;;;6.00;;
18917;SDS011;9591;52.742;13.650;2022-11-06T05:55:11;17.30;;;6.47;;
18917;SDS011;9591;52.742;13.650;2022-11-06T05:57:59;17.17;;;6.77;;
18917;SDS011;9591;52.742;13.650;2022-11-06T06:00:46;18.97;;;7.00;;
18917;SDS011;9591;52.742;13.650;2022-11-06T06:03:33;13.33;;;6.40;;
18917;SDS011;9591;52.742;13.650;2022-11-06T06:06:20;17.93;;;6.17;;
18917;SDS011;9591;52.742;13.650;2022-11-06T06:09:08;12.70;;;6.67;;
18917;SDS011;9591;52.742;13.650;2022-11-06T06:11:55;18.93;;;6.57;;
18917;SDS011;9591;52.742;13.650;2022-11-06T06:14:42;10.60;;;5.93;;
18917;SDS011;9591;52.742;13.650;2022-11-06T06:17:34;12.40;;;6.17;;
18917;SDS011;9591;52.742;13.650;2022-11-06T06:20:21;14.87;;;6.03;;
18917;SDS011;9591;52.742;13.650;2022-11-06T06:23:08;19.23;;;6.53;;
18917;SDS011;9591;52.742;13.650;2022-11-06T06:25:56;13.57;;;6.40;;
18917;SDS011;9591;52.742;13.650;2022-11-06T06:28:43;11.70;;;6.23;;
18917;SDS011;9591;52.742;13.650;2022-11-06T06:31:30;15.77;;;7.27;;
18917;SDS011;9591;52.742;13.650;2022-11-06T06:34:18;11.73;;;6.40;;
18917;SDS011;9591;52.742;13.650;2022-11-06T06:37:04;19.60;;;7.23;;
18917;SDS011;9591;52.742;13.650;2022-11-06T06:39:51;12.63;;;6.40;;
18917;SDS011;9591;52.742;13.650;2022-11-06T06:42:40;14.87;;;6.23;;
18917;SDS011;9591;52.742;13.650;2022-11-06T06:45:27;11.90;;;6.53;;
18917;SDS011;9591;52.742;13.650;2022-11-06T06:48:13;10.97;;;6.30;;
18917;SDS011;9591;52.742;13.650;2022-11-06T06:51:02;26.77;;;6.37;;
18917;SDS011;9591;52.742;13.650;2022-11-06T06:53:48;10.50;;;6.03;;
18917;SDS011;9591;52.742;13.650;2022-11-06T06:56:35;14.57;;;6.73;;
18917;SDS011;9591;52.742;13.650;2022-11-06T06:59:24;13.60;;;6.43;;
18917;SDS011;9591;52.742;13.650;2022-11-06T07:02:11;13.40;;;6.60;;
18917;SDS011;9591;52.742;13.650;2022-11-06T07:04:57;16.17;;;6.47;;
18917;SDS011;9591;52.742;13.650;2022-11-06T07:07:44;12.63;;;6.43;;
18917;SDS011;9591;52.742;13.650;2022-11-06T07:10:31;14.77;;;6.50;;
18917;SDS011;9591;52.742;13.650;2022-11-06T07:13:18;12.63;;;7.03;;
18917;SDS011;9591;52.742;13.650;2022-11-06T07:16:08;16.87;;;6.50;;
18917;SDS011;9591;52.742;13.650;2022-11-06T07:18:56;14.10;;;5.60;;
18917;SDS011;9591;52.742;13.650;2022-11-06T07:21:42;11.87;;;5.77;;
18917;SDS011;9591;52.742;13.650;2022-11-06T07:24:29;9.80;;;6.30;;
18917;SDS011;9591;52.742;13.650;2022-11-06T07:27:16;11.83;;;5.73;;
18917;SDS011;9591;52.742;13.650;2022-11-06T07:30:03;12.17;;;5.67;;
18917;SDS011;9591;52.742;13.650;2022-11-06T07:32:52;13.37;;;6.33;;
18917;SDS011;9591;52.742;13.650;2022-11-06T07:35:39;13.63;;;5.73;;
18917;SDS011;9591;52.742;13.650;2022-11-06T07:38:25;12.70;;;6.70;;
18917;SDS011;9591;52.742;13.650;2022-11-06T07:41:13;10.47;;;6.40;;
18917;SDS011;9591;52.742;13.650;2022-11-06T07:44:00;11.27;;;6.80;;
18917;SDS011;9591;52.742;13.650;2022-11-06T07:46:47;12.57;;;6.10;;
18917;SDS011;9591;52.742;13.650;2022-11-06T07:49:35;14.10;;;6.10;;
18917;SDS011;9591;52.742;13.650;2022-11-06T07:52:22;12.70;;;6.47;;
18917;SDS011;9591;52.742;13.650;2022-11-06T07:55:09;14.57;;;6.50;;
18917;SDS011;9591;52.742;13.650;2022-11-06T07:57:56;10.33;;;6.23;;
18917;SDS011;9591;52.742;13.650;2022-11-06T08:00:46;13.37;;;6.67;;
18917;SDS011;9591;52.742;13.650;2022-11-06T08:03:33;12.00;;;6.27;;
18917;SDS011;9591;52.742;13.650;2022-11-06T08:06:21;8.93;;;5.17;;
18917;SDS011;9591;52.742;13.650;2022-11-06T08:09:08;8.97;;;5.40;;
18917;SDS011;9591;52.742;13.650;2022-11-06T08:11:55;9.90;;;5.87;;
18917;SDS011;9591;52.742;13.650;2022-11-06T08:14:42;15.93;;;6.20;;
18917;SDS011;9591;52.742;13.650;2022-11-06T08:17:28;13.30;;;5.80;;
18917;SDS011;9591;52.742;13.650;2022-11-06T08:20:17;13.63;;;5.70;;
18917;SDS011;9591;52.742;13.650;2022-11-06T08:23:06;10.33;;;5.37;;
18917;SDS011;9591;52.742;13.650;2022-11-06T08:25:59;12.13;;;6.70;;
18917;SDS011;9591;52.742;13.650;2022-11-06T08:28:48;12.40;;;6.00;;
18917;SDS011;9591;52.742;13.650;2022-11-06T08:31:34;15.77;;;6.53;;
18917;SDS011;9591;52.742;13.650;2022-11-06T08:34:21;13.60;;;6.03;;
18917;SDS011;9591;52.742;13.650;2022-11-06T08:37:08;11.50;;;5.87;;
18917;SDS011;9591;52.742;13.650;2022-11-06T08:39:56;13.63;;;5.97;;
18917;SDS011;9591;52.742;13.650;2022-11-06T08:42:43;12.93;;;5.77;;
18917;SDS011;9591;52.742;13.650;2022-11-06T08:45:30;10.93;;;6.27;;
18917;SDS011;9591;52.742;13.650;2022-11-06T08:48:17;13.03;;;6.70;;
18917;SDS011;9591;52.742;13.650;2022-11-06T08:51:04;12.67;;;6.13;;
18917;SDS011;9591;52.742;13.650;2022-11-06T08:53:51;14.30;;;6.20;;
18917;SDS011;9591;52.742;13.650;2022-11-06T08:56:39;14.93;;;6.40;;
18917;SDS011;9591;52.742;13.650;2022-11-06T08:59:26;13.90;;;7.30;;
18917;SDS011;9591;52.742;13.650;2022-11-06T09:02:13;11.20;;;6.00;;
18917;SDS011;9591;52.742;13.650;2022-11-06T09:05:00;13.03;;;5.80;;
18917;SDS011;9591;52.742;13.650;2022-11-06T09:07:47;10.90;;;5.33;;
18917;SDS011;9591;52.742;13.650;2022-11-06T09:10:34;7.60;;;3.90;;
18917;SDS011;9591;52.742;13.650;2022-11-06T09:13:23;13.60;;;6.07;;
18917;SDS011;9591;52.742;13.650;2022-11-06T09:16:10;10.13;;;5.50;;
18917;SDS011;9591;52.742;13.650;2022-11-06T09:19:00;20.07;;;6.17;;
18917;SDS011;9591;52.742;13.650;2022-11-06T09:21:46;10.13;;;5.70;;
18917;SDS011;9591;52.742;13.650;2022-11-06T09:24:38;14.70;;;6.37;;
18917;SDS011;9591;52.742;13.650;2022-11-06T09:27:46;11.83;;;5.73;;
18917;SDS011;9591;52.742;13.650;2022-11-06T09:30:41;12.73;;;5.43;;
18917;SDS011;9591;52.742;13.650;2022-11-06T09:33:28;14.80;;;5.83;;
18917;SDS011;9591;52.742;13.650;2022-11-06T09:36:15;9.77;;;5.50;;
18917;SDS011;9591;52.742;13.650;2022-11-06T09:39:01;11.40;;;6.03;;
18917;SDS011;9591;52.742;13.650;2022-11-06T09:41:50;13.80;;;6.30;;
18917;SDS011;9591;52.742;13.650;2022-11-06T09:44:46;14.93;;;6.00;;
18917;SDS011;9591;52.742;13.650;2022-11-06T09:47:46;11.63;;;5.57;;
18917;SDS011;9591;52.742;13.650;2022-11-06T09:50:38;12.67;;;5.23;;
18917;SDS011;9591;52.742;13.650;2022-11-06T09:53:29;12.33;;;5.67;;
18917;SDS011;9591;52.742;13.650;2022-11-06T09:56:22;14.20;;;5.77;;
18917;SDS011;9591;52.742;13.650;2022-11-06T09:59:15;15.57;;;5.73;;
18917;SDS011;9591;52.742;13.650;2022-11-06T10:02:08;8.47;;;4.70;;
18917;SDS011;9591;52.742;13.650;2022-11-06T10:05:14;15.03;;;5.57;;
18917;SDS011;9591;52.742;13.650;2022-11-06T10:08:12;11.13;;;5.13;;
18917;SDS011;9591;52.742;13.650;2022-11-06T10:11:02;11.00;;;5.00;;
18917;SDS011;9591;52.742;13.650;2022-11-06T10:13:53;19.57;;;5.27;;
18917;SDS011;9591;52.742;13.650;2022-11-06T10:16:46;4.07;;;2.63;;
18917;SDS011;9591;52.742;13.650;2022-11-06T10:19:39;11.70;;;5.13;;
18917;SDS011;9591;52.742;13.650;2022-11-06T10:22:30;12.23;;;4.90;;
18917;SDS011;9591;52.742;13.650;2022-11-06T10:25:23;8.27;;;4.70;;
18917;SDS011;9591;52.742;13.650;2022-11-06T10:28:36;10.33;;;4.63;;
18917;SDS011;9591;52.742;13.650;2022-11-06T10:31:37;10.43;;;5.33;;
18917;SDS011;9591;52.742;13.650;2022-11-06T10:34:32;11.37;;;5.17;;
18917;SDS011;9591;52.742;13.650;2022-11-06T10:37:23;11.00;;;5.60;;
18917;SDS011;9591;52.742;13.650;2022-11-06T10:40:15;10.57;;;5.00;;
18917;SDS011;9591;52.742;13.650;2022-11-06T10:43:06;11.30;;;5.23;;
18917;SDS011;9591;52.742;13.650;2022-11-06T10:46:03;16.07;;;5.63;;
18917;SDS011;9591;52.742;13.650;2022-11-06T10:48:57;12.40;;;5.10;;
18917;SDS011;9591;52.742;13.650;2022-11-06T10:51:51;10.67;;;4.67;;
18917;SDS011;9591;52.742;13.650;2022-11-06T10:54:58;7.97;;;4.20;;
18917;SDS011;9591;52.742;13.650;2022-11-06T10:58:01;8.87;;;5.33;;
18917;SDS011;9591;52.742;13.650;2022-11-06T11:00:57;12.00;;;5.00;;
18917;SDS011;9591;52.742;13.650;2022-11-06T11:03:45;10.30;;;5.00;;
18917;SDS011;9591;52.742;13.650;2022-11-06T11:06:33;8.77;;;4.43;;
18917;SDS011;9591;52.742;13.650;2022-11-06T11:09:27;10.23;;;5.33;;
18917;SDS011;9591;52.742;13.650;2022-11-06T11:12:19;8.07;;;4.73;;
18917;SDS011;9591;52.742;13.650;2022-11-06T11:15:11;8.80;;;4.57;;
18917;SDS011;9591;52.742;13.650;2022-11-06T11:21:19;10.27;;;4.83;;
18917;SDS011;9591;52.742;13.650;2022-11-06T11:24:10;6.77;;;3.93;;
18917;SDS011;9591;52.742;13.650;2022-11-06T11:26:58;14.43;;;4.40;;
18917;SDS011;9591;52.742;13.650;2022-11-06T11:29:46;10.17;;;4.10;;
18917;SDS011;9591;52.742;13.650;2022-11-06T11:32:35;6.40;;;4.10;;
18917;SDS011;9591;52.742;13.650;2022-11-06T11:35:24;8.77;;;4.70;;
18917;SDS011;9591;52.742;13.650;2022-11-06T11:38:14;10.20;;;4.67;;
18917;SDS011;9591;52.742;13.650;2022-11-06T11:41:06;5.90;;;3.70;;
18917;SDS011;9591;52.742;13.650;2022-11-06T11:43:56;12.40;;;3.80;;
18917;SDS011;9591;52.742;13.650;2022-11-06T11:46:50;10.70;;;4.00;;
18917;SDS011;9591;52.742;13.650;2022-11-06T11:49:39;13.07;;;5.00;;
18917;SDS011;9591;52.742;13.650;2022-11-06T11:52:26;6.90;;;4.10;;
18917;SDS011;9591;52.742;13.650;2022-11-06T11:55:14;7.87;;;4.10;;
18917;SDS011;9591;52.742;13.650;2022-11-06T11:58:03;5.70;;;3.40;;
18917;SDS011;9591;52.742;13.650;2022-11-06T12:01:00;13.10;;;4.80;;
18917;SDS011;9591;52.742;13.650;2022-11-06T12:03:49;8.27;;;4.33;;
18917;SDS011;9591;52.742;13.650;2022-11-06T12:06:38;9.07;;;4.20;;
18917;SDS011;9591;52.742;13.650;2022-11-06T12:09:39;12.73;;;4.47;;
18917;SDS011;9591;52.742;13.650;2022-11-06T12:12:29;12.53;;;4.50;;
18917;SDS011;9591;52.742;13.650;2022-11-06T12:15:18;8.30;;;4.30;;
18917;SDS011;9591;52.742;13.650;2022-11-06T12:18:09;8.13;;;4.60;;
18917;SDS011;9591;52.742;13.650;2022-11-06T12:21:00;7.63;;;4.13;;
18917;SDS011;9591;52.742;13.650;2022-11-06T12:23:52;10.03;;;3.67;;
18917;SDS011;9591;52.742;13.650;2022-11-06T12:26:43;5.33;;;3.40;;
18917;SDS011;9591;52.742;13.650;2022-11-06T12:29:35;8.90;;;4.53;;
18917;SDS011;9591;52.742;13.650;2022-11-06T12:32:25;8.33;;;3.87;;
18917;SDS011;9591;52.742;13.650;2022-11-06T12:35:23;8.77;;;3.80;;
18917;SDS011;9591;52.742;13.650;2022-11-06T12:38:16;10.97;;;3.93;;
18917;SDS011;9591;52.742;13.650;2022-11-06T12:41:12;9.33;;;4.17;;
18917;SDS011;9591;52.742;13.650;2022-11-06T12:44:07;7.20;;;4.00;;
18917;SDS011;9591;52.742;13.650;2022-11-06T12:46:58;9.03;;;3.40;;
18917;SDS011;9591;52.742;13.650;2022-11-06T12:49:56;5.90;;;3.70;;
18917;SDS011;9591;52.742;13.650;2022-11-06T12:53:00;11.20;;;3.70;;
18917;SDS011;9591;52.742;13.650;2022-11-06T12:55:58;5.60;;;3.50;;
18917;SDS011;9591;52.742;13.650;2022-11-06T12:58:59;6.63;;;3.50;;
18917;SDS011;9591;52.742;13.650;2022-11-06T13:01:53;5.30;;;3.53;;
18917;SDS011;9591;52.742;13.650;2022-11-06T13:04:48;7.07;;;3.40;;
18917;SDS011;9591;52.742;13.650;2022-11-06T13:07:47;4.20;;;2.90;;
18917;SDS011;9591;52.742;13.650;2022-11-06T13:11:04;7.07;;;3.20;;
18917;SDS011;9591;52.742;13.650;2022-11-06T13:14:03;9.73;;;3.47;;
18917;SDS011;9591;52.742;13.650;2022-11-06T13:16:58;4.27;;;3.03;;
18917;SDS011;9591;52.742;13.650;2022-11-06T13:19:50;6.87;;;3.43;;
18917;SDS011;9591;52.742;13.650;2022-11-06T13:22:43;3.93;;;2.90;;
18917;SDS011;9591;52.742;13.650;2022-11-06T13:25:36;3.90;;;2.60;;
18917;SDS011;9591;52.742;13.650;2022-11-06T13:28:33;3.60;;;3.00;;
18917;SDS011;9591;52.742;13.650;2022-11-06T13:31:27;4.03;;;2.77;;
18917;SDS011;9591;52.742;13.650;2022-11-06T13:34:21;7.53;;;3.37;;
18917;SDS011;9591;52.742;13.650;2022-11-06T13:37:11;6.67;;;2.80;;
18917;SDS011;9591;52.742;13.650;2022-11-06T13:40:02;2.97;;;2.53;;
18917;SDS011;9591;52.742;13.650;2022-11-06T13:43:01;6.27;;;3.20;;
18917;SDS011;9591;52.742;13.650;2022-11-06T13:45:52;5.57;;;2.80;;
18917;SDS011;9591;52.742;13.650;2022-11-06T13:48:49;3.83;;;2.90;;
18917;SDS011;9591;52.742;13.650;2022-11-06T13:51:45;3.80;;;2.57;;
18917;SDS011;9591;52.742;13.650;2022-11-06T13:54:40;4.67;;;2.70;;
18917;SDS011;9591;52.742;13.650;2022-11-06T14:01:03;6.07;;;2.47;;
18917;SDS011;9591;52.742;13.650;2022-11-06T14:04:03;4.77;;;2.43;;
18917;SDS011;9591;52.742;13.650;2022-11-06T14:07:12;6.33;;;2.70;;
18917;SDS011;9591;52.742;13.650;2022-11-06T14:10:01;5.23;;;2.80;;
18917;SDS011;9591;52.742;13.650;2022-11-06T14:12:49;6.23;;;2.47;;
18917;SDS011;9591;52.742;13.650;2022-11-06T14:15:37;6.17;;;2.90;;
18917;SDS011;9591;52.742;13.650;2022-11-06T14:18:25;2.90;;;2.60;;
18917;SDS011;9591;52.742;13.650;2022-11-06T14:24:32;11.77;;;2.80;;
18917;SDS011;9591;52.742;13.650;2022-11-06T14:30:43;5.03;;;2.70;;
18917;SDS011;9591;52.742;13.650;2022-11-06T14:33:57;4.67;;;2.67;;
18917;SDS011;9591;52.742;13.650;2022-11-06T14:36:48;4.33;;;2.80;;
18917;SDS011;9591;52.742;13.650;2022-11-06T14:42:50;6.13;;;2.47;;
18917;SDS011;9591;52.742;13.650;2022-11-06T14:45:37;4.57;;;2.60;;
18917;SDS011;9591;52.742;13.650;2022-11-06T14:48:25;4.30;;;2.30;;
18917;SDS011;9591;52.742;13.650;2022-11-06T14:51:13;5.40;;;2.60;;
18917;SDS011;9591;52.742;13.650;2022-11-06T14:54:03;2.67;;;1.93;;
18917;SDS011;9591;52.742;13.650;2022-11-06T14:57:02;4.07;;;2.07;;
18917;SDS011;9591;52.742;13.650;2022-11-06T14:59:49;2.80;;;2.33;;
18917;SDS011;9591;52.742;13.650;2022-11-06T15:02:43;4.43;;;2.70;;
18917;SDS011;9591;52.742;13.650;2022-11-06T15:05:29;4.03;;;2.27;;
18917;SDS011;9591;52.742;13.650;2022-11-06T15:11:55;2.87;;;2.20;;
18917;SDS011;9591;52.742;13.650;2022-11-06T15:17:52;3.93;;;2.37;;
18917;SDS011;9591;52.742;13.650;2022-11-06T15:20:39;3.07;;;2.33;;
18917;SDS011;9591;52.742;13.650;2022-11-06T15:23:30;5.27;;;2.63;;
18917;SDS011;9591;52.742;13.650;2022-11-06T15:26:24;4.60;;;2.13;;
18917;SDS011;9591;52.742;13.650;2022-11-06T15:29:17;5.87;;;2.73;;
18917;SDS011;9591;52.742;13.650;2022-11-06T15:32:09;3.30;;;2.33;;
18917;SDS011;9591;52.742;13.650;2022-11-06T15:35:00;2.80;;;2.27;;
18917;SDS011;9591;52.742;13.650;2022-11-06T15:37:52;6.07;;;2.50;;
18917;SDS011;9591;52.742;13.650;2022-11-06T15:40:42;5.47;;;2.57;;
18917;SDS011;9591;52.742;13.650;2022-11-06T15:43:31;5.90;;;3.20;;
18917;SDS011;9591;52.742;13.650;2022-11-06T15:46:22;3.87;;;2.67;;
18917;SDS011;9591;52.742;13.650;2022-11-06T15:49:15;6.37;;;2.87;;
18917;SDS011;9591;52.742;13.650;2022-11-06T15:52:03;5.17;;;3.40;;
18917;SDS011;9591;52.742;13.650;2022-11-06T15:54:51;5.20;;;3.10;;
18917;SDS011;9591;52.742;13.650;2022-11-06T15:57:40;5.80;;;2.90;;
18917;SDS011;9591;52.742;13.650;2022-11-06T16:00:27;9.53;;;3.43;;
18917;SDS011;9591;52.742;13.650;2022-11-06T16:03:16;4.10;;;3.00;;
18917;SDS011;9591;52.742;13.650;2022-11-06T16:06:04;5.07;;;2.93;;
18917;SDS011;9591;52.742;13.650;2022-11-06T16:08:51;8.30;;;3.50;;
18917;SDS011;9591;52.742;13.650;2022-11-06T16:11:38;9.10;;;3.37;;
18917;SDS011;9591;52.742;13.650;2022-11-06T16:14:26;13.17;;;3.53;;
18917;SDS011;9591;52.742;13.650;2022-11-06T16:17:14;6.73;;;3.70;;
18917;SDS011;9591;52.742;13.650;2022-11-06T16:20:11;5.47;;;3.33;;
18917;SDS011;9591;52.742;13.650;2022-11-06T16:23:01;9.70;;;3.80;;
18917;SDS011;9591;52.742;13.650;2022-11-06T16:25:48;6.03;;;3.90;;
18917;SDS011;9591;52.742;13.650;2022-11-06T16:28:49;7.87;;;4.53;;
18917;SDS011;9591;52.742;13.650;2022-11-06T16:31:39;7.77;;;4.70;;
18917;SDS011;9591;52.742;13.650;2022-11-06T16:34:33;8.73;;;4.60;;
18917;SDS011;9591;52.742;13.650;2022-11-06T16:37:36;5.00;;;3.60;;
18917;SDS011;9591;52.742;13.650;2022-11-06T16:43:35;6.70;;;3.33;;
18917;SDS011;9591;52.742;13.650;2022-11-06T16:46:22;5.70;;;3.70;;
18917;SDS011;9591;52.742;13.650;2022-11-06T16:49:29;6.43;;;3.90;;
18917;SDS011;9591;52.742;13.650;2022-11-06T16:52:21;5.37;;;3.80;;
18917;SDS011;9591;52.742;13.650;2022-11-06T16:55:22;12.20;;;4.33;;
18917;SDS011;9591;52.742;13.650;2022-11-06T16:58:12;10.20;;;4.63;;
18917;SDS011;9591;52.742;13.650;2022-11-06T17:01:02;11.57;;;4.67;;
18917;SDS011;9591;52.742;13.650;2022-11-06T17:03:52;9.50;;;4.73;;
18917;SDS011;9591;52.742;13.650;2022-11-06T17:06:41;5.40;;;4.50;;
18917;SDS011;9591;52.742;13.650;2022-11-06T17:09:30;6.20;;;4.27;;
18917;SDS011;9591;52.742;13.650;2022-11-06T17:12:19;5.67;;;4.20;;
18917;SDS011;9591;52.742;13.650;2022-11-06T17:15:07;6.03;;;4.10;;
18917;SDS011;9591;52.742;13.650;2022-11-06T17:17:55;8.47;;;3.97;;
18917;SDS011;9591;52.742;13.650;2022-11-06T17:20:43;7.33;;;3.83;;
18917;SDS011;9591;52.742;13.650;2022-11-06T17:23:33;6.30;;;3.93;;
18917;SDS011;9591;52.742;13.650;2022-11-06T17:26:22;5.33;;;3.20;;
18917;SDS011;9591;52.742;13.650;2022-11-06T17:29:14;6.43;;;3.43;;